Time;durP1;ratioP1;P1;durP2;ratioP2;P2;SDS_P1;SDS_P2;PMS_P1;PMS_P2;Temp;Humidity;BMP_temperature;BMP_pressure;BME280_temperature;BME280_humidity;BME280_pressure;Samples;Min_cycle;Max_cycle;Signal;HPM_P1;HPM_P2
2022/02/11 07:19:28;;;;;;;6.53;0.98;;;3.80;94.90;;;;;;2114945;27;20059;-90
2022/02/11 07:20:49;;;;;;;5.55;0.80;;;3.80;94.90;;;;;;2112207;28;20048;-90
2022/02/11 07:22:08;;;;;;;7.03;1.10;;;3.80;94.90;;;;;;2112039;27;20024;-91
2022/02/11 07:23:28;;;;;;;2.85;0.90;;;3.90;95.00;;;;;;2105446;28;20417;-91
2022/02/11 07:24:53;;;;;;;7.43;1.45;;;3.80;95.00;;;;;;2095416;28;20037;-91
2022/02/11 07:26:12;;;;;;;7.38;1.20;;;3.90;95.00;;;;;;2100531;28;20045;-92
2022/02/11 07:27:32;;;;;;;8.38;1.10;;;3.90;95.30;;;;;;2102473;28;20492;-91
2022/02/11 07:28:51;;;;;;;5.85;1.20;;;3.90;95.10;;;;;;2099458;28;20186;-91
2022/02/11 07:30:12;;;;;;;7.18;1.33;;;3.90;95.00;;;;;;2105681;28;20047;-90
2022/02/11 07:31:31;;;;;;;4.13;0.93;;;3.90;95.00;;;;;;2102845;28;20119;-90
2022/02/11 07:32:54;;;;;;;7.85;1.27;;;3.90;95.00;;;;;;2110820;28;20105;-89
2022/02/11 07:34:13;;;;;;;5.60;1.02;;;4.00;95.00;;;;;;2105027;28;20472;-90
2022/02/11 07:35:34;;;;;;;6.90;1.17;;;4.00;95.00;;;;;;2111581;27;20039;-90
2022/02/11 07:36:53;;;;;;;;;;;4.00;95.00;;;;;;2106362;28;20044;-90
2022/02/11 07:38:13;;;;;;;11.20;1.63;;;4.00;94.90;;;;;;2106095;28;19908;-92
2022/02/11 07:39:32;;;;;;;7.28;1.30;;;4.00;94.90;;;;;;2095919;28;20469;-90
2022/02/11 07:40:51;;;;;;;4.68;1.10;;;4.00;94.90;;;;;;2105766;28;20044;-90
2022/02/11 07:42:11;;;;;;;6.30;1.00;;;4.00;94.90;;;;;;2106047;28;20040;-91
2022/02/11 07:43:30;;;;;;;6.78;1.42;;;4.00;94.90;;;;;;2111053;27;20028;-90
2022/02/11 07:44:50;;;;;;;5.43;1.20;;;4.10;94.90;;;;;;2099380;28;20052;-91
2022/02/11 07:46:10;;;;;;;5.25;1.08;;;4.10;94.90;;;;;;2108325;28;20410;-91
2022/02/11 07:47:29;;;;;;;6.80;1.10;;;4.00;94.80;;;;;;2105848;28;20036;-92
2022/02/11 07:48:49;;;;;;;7.13;1.23;;;4.10;94.90;;;;;;2106262;28;20032;-90
2022/02/11 07:50:09;;;;;;;6.15;1.30;;;4.10;94.80;;;;;;2100103;28;20044;-91
2022/02/11 07:51:28;;;;;;;3.55;0.90;;;4.10;94.80;;;;;;2103520;28;20028;-91
2022/02/11 07:52:47;;;;;;;7.13;1.30;;;4.20;94.80;;;;;;2101902;28;20076;-90
2022/02/11 07:54:07;;;;;;;6.35;1.17;;;4.20;94.80;;;;;;2093900;28;20045;-90
2022/02/11 07:55:26;;;;;;;5.65;1.23;;;4.10;94.70;;;;;;2094422;28;20036;-91
2022/02/11 07:56:45;;;;;;;5.38;1.08;;;4.20;94.70;;;;;;2092325;28;20036;-90
2022/02/11 07:58:04;;;;;;;7.68;1.80;;;4.20;94.70;;;;;;2093540;28;20052;-90
2022/02/11 07:59:24;;;;;;;8.02;1.65;;;4.20;94.70;;;;;;2107174;28;20039;-90
2022/02/11 08:00:45;;;;;;;7.78;1.42;;;4.20;94.60;;;;;;2100645;28;20036;-92
2022/02/11 08:02:04;;;;;;;6.40;1.65;;;4.30;94.60;;;;;;2099858;28;20079;-91
2022/02/11 08:03:24;;;;;;;8.50;1.75;;;4.30;94.60;;;;;;2109542;28;20095;-91
2022/02/11 08:04:43;;;;;;;5.97;1.27;;;4.30;94.60;;;;;;2114250;28;20089;-90
2022/02/11 08:06:02;;;;;;;6.93;1.27;;;4.30;94.60;;;;;;2099647;28;20036;-90
2022/02/11 08:07:22;;;;;;;7.05;1.23;;;4.40;94.50;;;;;;2102752;28;20051;-91
2022/02/11 08:08:41;;;;;;;5.78;1.02;;;4.40;94.50;;;;;;2096542;28;20123;-91
2022/02/11 08:10:00;;;;;;;6.78;1.10;;;4.50;94.50;;;;;;2097578;28;20036;-91
2022/02/11 08:11:19;;;;;;;6.38;1.13;;;4.50;94.50;;;;;;2105708;28;20031;-91
2022/02/11 08:12:39;;;;;;;7.18;1.30;;;4.50;94.60;;;;;;2117369;28;20125;-90
2022/02/11 08:14:00;;;;;;;5.40;1.00;;;4.50;94.60;;;;;;2106739;28;20043;-90
2022/02/11 08:15:21;;;;;;;5.80;1.30;;;4.60;94.40;;;;;;2106651;28;20467;-91
2022/02/11 08:16:41;;;;;;;7.97;1.83;;;4.60;94.30;;;;;;2112745;28;20077;-92
2022/02/11 08:18:00;;;;;;;7.97;1.13;;;4.60;94.30;;;;;;2105795;28;20044;-90
2022/02/11 08:19:23;;;;;;;5.75;1.13;;;4.70;94.30;;;;;;2107709;28;20229;-91
2022/02/11 08:20:49;;;;;;;9.45;1.20;;;4.70;94.30;;;;;;2090996;28;20044;-91
2022/02/11 08:22:08;;;;;;;7.93;1.42;;;4.70;94.20;;;;;;2102092;28;20032;-90
2022/02/11 08:23:29;;;;;;;8.40;1.50;;;4.70;94.20;;;;;;2114672;27;20016;-89
2022/02/11 08:24:49;;;;;;;;;;;4.70;94.20;;;;;;2101827;28;20017;-91
2022/02/11 08:26:09;;;;;;;;;;;4.70;94.20;;;;;;2104591;28;19908;-90
2022/02/11 08:27:29;;;;;;;4.85;0.95;;;4.70;94.20;;;;;;2103461;28;19900;-91
2022/02/11 08:28:50;;;;;;;6.55;1.38;;;4.70;94.10;;;;;;2106281;28;20018;-91
2022/02/11 08:30:14;;;;;;;7.60;1.15;;;4.70;94.10;;;;;;2096320;28;20025;-91
2022/02/11 08:31:34;;;;;;;6.85;1.38;;;4.80;94.10;;;;;;2104632;28;20029;-91
2022/02/11 08:33:00;;;;;;;9.05;1.25;;;4.80;94.10;;;;;;2120239;28;20011;-89
2022/02/11 08:34:24;;;;;;;8.07;1.50;;;4.80;94.10;;;;;;2104631;28;20025;-91
2022/02/11 08:35:45;;;;;;;11.48;1.52;;;4.80;94.10;;;;;;2104411;28;20077;-91
2022/02/11 08:37:04;;;;;;;5.38;1.00;;;4.90;94.30;;;;;;2085144;28;20527;-91
2022/02/11 08:38:26;;;;;;;9.60;1.95;;;4.90;94.00;;;;;;2079691;28;20033;-92
2022/02/11 08:39:46;;;;;;;8.45;1.48;;;4.90;94.00;;;;;;2103630;28;20029;-91
2022/02/11 08:41:07;;;;;;;7.13;1.40;;;5.00;94.00;;;;;;2098412;28;20088;-90
2022/02/11 08:42:27;;;;;;;6.90;1.15;;;5.00;93.90;;;;;;2093430;28;20072;-91
2022/02/11 08:43:47;;;;;;;7.25;1.67;;;5.10;93.90;;;;;;2099356;28;20033;-91
2022/02/11 08:45:10;;;;;;;13.55;2.08;;;5.10;93.90;;;;;;2095512;28;20037;-90
2022/02/11 08:46:31;;;;;;;10.18;1.85;;;5.20;93.70;;;;;;2092525;28;20060;-91
2022/02/11 08:47:52;;;;;;;11.02;1.90;;;5.20;93.70;;;;;;2100604;28;20032;-91
2022/02/11 08:49:12;;;;;;;7.05;1.20;;;5.30;93.60;;;;;;2094694;28;20033;-91
2022/02/11 08:50:32;;;;;;;11.07;1.60;;;5.30;93.60;;;;;;2111370;28;20024;-90
2022/02/11 08:51:53;;;;;;;10.27;1.83;;;5.30;93.80;;;;;;2101017;28;20028;-89
2022/02/11 08:53:15;;;;;;;11.45;1.80;;;5.40;93.50;;;;;;2095134;28;20017;-90
2022/02/11 08:54:49;;;;;;;9.05;1.60;;;5.40;93.40;;;;;;2100794;28;20025;-91
2022/02/11 08:56:10;;;;;;;9.23;2.00;;;5.50;93.40;;;;;;2104050;28;20029;-90
2022/02/11 08:57:39;;;;;;;7.03;1.40;;;5.50;93.30;;;;;;2100676;28;20025;-90
2022/02/11 08:59:16;;;;;;;9.43;1.67;;;5.60;93.30;;;;;;2101670;28;20021;-90
2022/02/11 09:00:43;;;;;;;11.90;1.90;;;5.70;93.30;;;;;;2093229;28;20033;-91
2022/02/11 09:02:30;;;;;;;7.13;2.67;;;5.70;93.10;;;;;;2119288;28;20020;-91
2022/02/11 09:03:56;;;;;;;8.75;1.80;;;5.80;93.00;;;;;;2108984;28;20252;-91
2022/02/11 09:05:21;;;;;;;8.43;2.00;;;5.90;93.00;;;;;;2103425;28;20024;-90
2022/02/11 09:06:43;;;;;;;6.82;1.58;;;5.90;92.90;;;;;;2100933;28;20057;-89
2022/02/11 09:08:04;;;;;;;11.30;1.75;;;5.90;92.90;;;;;;2112960;28;20083;-90
2022/02/11 09:09:33;;;;;;;15.45;2.03;;;5.90;92.70;;;;;;2093238;28;20025;-91
2022/02/11 09:10:53;;;;;;;10.43;2.10;;;5.90;92.50;;;;;;2101018;28;20032;-91
2022/02/11 09:12:33;;;;;;;11.75;1.75;;;5.90;92.60;;;;;;2110275;28;20024;-91
2022/02/11 09:14:43;;;;;;;12.40;2.05;;;5.90;92.60;;;;;;2110428;28;20041;-91
2022/02/11 09:16:08;;;;;;;9.60;1.60;;;5.80;92.50;;;;;;2118256;28;20028;-88
2022/02/11 09:17:27;;;;;;;12.65;1.92;;;5.80;92.50;;;;;;2102203;28;20049;-89
2022/02/11 09:18:49;;;;;;;10.73;2.08;;;5.70;92.60;;;;;;2106543;28;20020;-89
2022/02/11 09:20:19;;;;;;;7.45;1.33;;;5.80;92.60;;;;;;2120636;27;20071;-91
2022/02/11 09:21:41;;;;;;;6.88;1.75;;;5.80;92.70;;;;;;2110377;28;20088;-90
2022/02/11 09:23:07;;;;;;;13.70;2.40;;;5.80;92.50;;;;;;2101100;28;20021;-91
2022/02/11 09:24:34;;;;;;;13.45;2.13;;;5.80;92.10;;;;;;2107120;28;20024;-91
2022/02/11 09:25:55;;;;;;;12.23;2.25;;;5.80;92.30;;;;;;2124138;27;20036;-91
2022/02/11 09:27:24;;;;;;;9.38;2.03;;;5.80;92.40;;;;;;2107636;28;20021;-87
2022/02/11 09:28:44;;;;;;;9.20;1.55;;;5.90;92.40;;;;;;2099882;28;20037;-92
2022/02/11 09:30:07;;;;;;;7.97;1.63;;;5.90;92.30;;;;;;2104031;28;20060;-92
2022/02/11 09:31:36;;;;;;;8.30;1.67;;;6.00;92.30;;;;;;2115356;27;20028;-89
2022/02/11 09:33:00;;;;;;;7.35;1.50;;;6.00;92.20;;;;;;2110120;28;20033;-90
2022/02/11 09:34:20;;;;;;;9.43;2.22;;;6.10;92.20;;;;;;2117231;28;20029;-92
2022/02/11 09:35:42;;;;;;;9.07;1.80;;;6.10;92.10;;;;;;2120088;28;20036;-93
2022/02/11 09:37:04;;;;;;;8.70;1.90;;;6.10;92.00;;;;;;2116401;28;20079;-92
2022/02/11 09:38:24;;;;;;;;;;;6.20;92.00;;;;;;2104522;28;20108;-93
2022/02/11 09:39:44;;;;;;;10.87;2.13;;;6.20;92.00;;;;;;2096556;28;19912;-93
2022/02/11 09:41:04;;;;;;;10.77;2.17;;;6.20;91.80;;;;;;2093336;28;20279;-92
2022/02/11 09:42:26;;;;;;;11.35;2.85;;;6.20;91.70;;;;;;2094510;28;20138;-92
2022/02/11 09:43:47;;;;;;;13.93;2.28;;;6.30;91.50;;;;;;2098591;28;20052;-91
2022/02/11 09:45:09;;;;;;;11.88;2.22;;;6.30;91.30;;;;;;2082876;28;20045;-92
2022/02/11 09:46:33;;;;;;;11.88;2.55;;;6.30;91.20;;;;;;2111710;28;20509;-90
2022/02/11 09:47:52;;;;;;;9.93;2.00;;;6.30;91.20;;;;;;2098101;28;20045;-90
2022/02/11 09:49:12;;;;;;;7.65;1.80;;;6.30;91.00;;;;;;2097133;28;20080;-90
2022/02/11 09:50:33;;;;;;;6.90;1.50;;;6.30;91.10;;;;;;2094552;28;20049;-91
2022/02/11 09:51:58;;;;;;;10.02;1.90;;;6.40;91.20;;;;;;2092371;28;20052;-91
2022/02/11 09:53:20;;;;;;;6.63;1.42;;;6.40;91.10;;;;;;2098176;28;20064;-96
2022/02/11 09:54:47;;;;;;;10.63;1.92;;;6.50;91.00;;;;;;2103096;28;20510;-92
2022/02/11 09:56:16;;;;;;;11.48;1.70;;;6.50;90.90;;;;;;2100491;28;20056;-92
2022/02/11 09:57:42;;;;;;;7.97;1.30;;;6.60;90.60;;;;;;2102340;28;20553;-93
2022/02/11 09:59:10;;;;;;;11.57;2.00;;;6.60;90.00;;;;;;2101893;28;20052;-93
2022/02/11 10:00:48;;;;;;;10.00;1.40;;;6.60;88.70;;;;;;2100584;28;20426;-92
2022/02/11 10:02:21;;;;;;;9.20;1.58;;;6.70;89.10;;;;;;2103969;28;20036;-93
2022/02/11 10:03:41;;;;;;;10.45;1.45;;;6.70;88.10;;;;;;2106239;28;20036;-92
2022/02/11 10:05:05;;;;;;;8.95;1.58;;;6.70;87.60;;;;;;2098082;28;20048;-91
2022/02/11 10:06:31;;;;;;;8.88;1.83;;;6.70;87.30;;;;;;2089192;28;20068;-91
2022/02/11 10:07:50;;;;;;;7.32;1.23;;;6.70;87.10;;;;;;2103620;28;20036;-91
2022/02/11 10:09:12;;;;;;;5.07;1.02;;;6.80;86.90;;;;;;2112238;28;20130;-91
2022/02/11 10:10:49;;;;;;;8.93;1.38;;;6.80;87.10;;;;;;2102515;28;20029;-91
2022/02/11 10:12:14;;;;;;;6.93;1.13;;;6.90;86.40;;;;;;2107698;28;20048;-91
2022/02/11 10:14:03;;;;;;;7.03;1.38;;;6.90;85.90;;;;;;2093979;28;20036;-92
2022/02/11 10:15:26;;;;;;;5.80;1.10;;;6.90;86.10;;;;;;2106374;28;20032;-93
2022/02/11 10:17:24;;;;;;;7.93;1.35;;;6.90;85.20;;;;;;2101464;28;20465;-93
2022/02/11 10:19:06;;;;;;;8.88;1.33;;;6.90;84.80;;;;;;2105594;28;20040;-93
2022/02/11 10:20:29;;;;;;;6.35;1.10;;;6.90;84.10;;;;;;2112168;27;20071;-94
2022/02/11 10:22:19;;;;;;;5.25;1.05;;;6.90;83.80;;;;;;2095529;28;20509;-93
2022/02/11 10:23:42;;;;;;;8.98;1.45;;;7.00;83.90;;;;;;2113143;27;20067;-93
2022/02/11 10:25:09;;;;;;;8.82;1.70;;;7.00;84.30;;;;;;2104931;28;20079;-91
2022/02/11 10:26:48;;;;;;;9.60;1.77;;;7.00;83.90;;;;;;2117624;27;20031;-93
2022/02/11 10:28:39;;;;;;;8.07;1.45;;;7.00;83.40;;;;;;2116644;28;20031;-92
2022/02/11 10:30:10;;;;;;;6.40;0.90;;;7.00;83.80;;;;;;2115078;28;20514;-92
2022/02/11 10:31:35;;;;;;;6.65;1.45;;;7.00;83.20;;;;;;2116853;27;20413;-92
2022/02/11 10:32:57;;;;;;;;;;;7.00;82.50;;;;;;2108934;28;20084;-92
2022/02/11 10:34:31;;;;;;;6.85;1.25;;;7.00;81.30;;;;;;2117762;27;20095;-94
2022/02/11 10:35:56;;;;;;;9.10;1.65;;;7.00;82.20;;;;;;2125341;27;20056;-92
2022/02/11 10:37:26;;;;;;;8.70;1.40;;;7.00;79.70;;;;;;2115549;27;20160;-95
2022/02/11 10:39:43;;;;;;;9.48;1.40;;;7.00;80.10;;;;;;2116954;27;20031;-94
2022/02/11 10:41:24;;;;;;;5.40;1.08;;;7.00;79.80;;;;;;2121400;27;20122;-94
2022/02/11 10:42:46;;;;;;;7.82;1.38;;;7.00;80.00;;;;;;2108531;28;20040;-92
2022/02/11 10:44:29;;;;;;;6.25;1.13;;;7.00;79.40;;;;;;2116346;27;20420;-90
2022/02/11 10:45:49;;;;;;;8.00;1.65;;;7.00;79.90;;;;;;2119417;27;20024;-91
2022/02/11 10:47:13;;;;;;;4.95;1.02;;;6.90;80.50;;;;;;2118943;27;20047;-91
2022/02/11 10:48:38;;;;;;;6.50;1.35;;;6.90;80.70;;;;;;2112972;28;20031;-91
2022/02/11 10:50:15;;;;;;;3.47;1.00;;;6.90;80.90;;;;;;2111981;28;20039;-92
2022/02/11 10:51:44;;;;;;;7.38;1.20;;;7.00;81.30;;;;;;2115219;28;20028;-93
2022/02/11 10:53:09;;;;;;;4.80;0.95;;;7.00;81.40;;;;;;2110073;28;20048;-92
2022/02/11 10:54:34;;;;;;;4.90;1.13;;;7.00;81.00;;;;;;2113038;28;20044;-91
2022/02/11 10:55:53;;;;;;;5.13;1.00;;;7.00;80.40;;;;;;2120672;27;20047;-91
2022/02/11 10:57:18;;;;;;;3.72;0.90;;;7.00;79.40;;;;;;2107557;28;20097;-92
2022/02/11 10:58:52;;;;;;;6.90;1.20;;;7.10;80.30;;;;;;2112775;28;21599;-91
2022/02/11 11:00:21;;;;;;;4.05;0.77;;;7.00;80.40;;;;;;2115041;27;20082;-94
2022/02/11 11:01:40;;;;;;;5.90;1.25;;;7.00;80.70;;;;;;2106875;28;20169;-95
2022/02/11 11:03:00;;;;;;;5.70;1.20;;;7.10;78.90;;;;;;2101962;28;20491;-95
2022/02/11 11:04:30;;;;;;;6.13;1.27;;;7.10;78.80;;;;;;2105488;28;20032;-94
2022/02/11 11:05:52;;;;;;;7.32;1.10;;;7.10;78.70;;;;;;2116728;28;20040;-95
2022/02/11 11:07:26;;;;;;;7.45;1.20;;;7.10;79.50;;;;;;2109353;28;20048;-95
2022/02/11 11:08:49;;;;;;;6.43;1.45;;;7.10;75.50;;;;;;2114782;27;20036;-95
2022/02/11 11:10:11;;;;;;;5.88;1.10;;;7.20;77.10;;;;;;2102534;28;20041;-94
2022/02/11 11:11:32;;;;;;;6.13;1.23;;;7.20;77.00;;;;;;2111129;28;20043;-96
2022/02/11 11:12:56;;;;;;;5.13;1.10;;;7.30;77.40;;;;;;2113528;27;20501;-95
2022/02/11 11:14:18;;;;;;;7.38;1.55;;;7.30;77.30;;;;;;2110432;28;20044;-94
2022/02/11 11:15:47;;;;;;;9.43;1.98;;;7.30;76.20;;;;;;2110813;28;20116;-94
2022/02/11 11:17:16;;;;;;;8.00;1.17;;;7.40;73.70;;;;;;2114363;28;20072;-95
2022/02/11 11:18:37;;;;;;;6.63;1.20;;;7.40;74.70;;;;;;2108688;28;20044;-94
2022/02/11 11:19:58;;;;;;;6.35;1.55;;;7.40;73.40;;;;;;2106956;27;20036;-96
2022/02/11 11:21:18;;;;;;;9.02;1.55;;;7.40;75.10;;;;;;2105357;28;20040;-95
2022/02/11 11:22:43;;;;;;;7.07;1.30;;;7.50;75.40;;;;;;2109812;28;20433;-95
2022/02/11 11:24:03;;;;;;;5.43;1.05;;;7.50;75.10;;;;;;2118301;27;20521;-94
2022/02/11 11:25:23;;;;;;;6.93;1.20;;;7.50;75.10;;;;;;2111285;28;20075;-93
2022/02/11 11:26:45;;;;;;;5.75;1.02;;;7.50;75.60;;;;;;2098675;28;20033;-95
2022/02/11 11:28:06;;;;;;;4.93;1.10;;;7.50;74.80;;;;;;2110538;28;20505;-94
2022/02/11 11:29:28;;;;;;;3.42;1.00;;;7.50;75.70;;;;;;2104878;28;20170;-94
2022/02/11 11:30:55;;;;;;;6.78;1.23;;;7.50;75.80;;;;;;2116651;28;20040;-95
2022/02/11 11:32:14;;;;;;;5.10;1.10;;;7.50;75.30;;;;;;2116000;27;20036;-95
2022/02/11 11:33:34;;;;;;;7.95;1.65;;;7.50;75.40;;;;;;2109271;28;20048;-94
2022/02/11 11:35:05;;;;;;;5.00;1.10;;;7.40;74.50;;;;;;2099075;28;20041;-95
2022/02/11 11:36:33;;;;;;;5.07;1.10;;;7.40;74.50;;;;;;2110595;28;20040;-94
2022/02/11 11:38:11;;;;;;;6.25;1.65;;;7.30;75.10;;;;;;2122377;27;20043;-94
2022/02/11 11:39:31;;;;;;;3.97;0.93;;;7.20;75.30;;;;;;2119000;27;20047;-94
2022/02/11 11:41:08;;;;;;;6.88;1.48;;;7.10;75.30;;;;;;2112930;28;20119;-95
2022/02/11 11:42:27;;;;;;;8.32;1.30;;;7.10;74.20;;;;;;2119282;27;20122;-95
2022/02/11 11:43:51;;;;;;;3.40;0.90;;;7.00;73.80;;;;;;2116892;28;20044;-93
2022/02/11 11:45:27;;;;;;;4.75;0.98;;;7.10;74.60;;;;;;2109926;27;20067;-94
2022/02/11 11:46:48;;;;;;;7.70;1.23;;;7.20;74.30;;;;;;2102404;28;20033;-94
2022/02/11 11:48:13;;;;;;;;;;;7.30;74.50;;;;;;2105588;28;20036;-93
2022/02/11 11:49:41;;;;;;;7.20;0.90;;;7.40;73.30;;;;;;2103332;28;19916;-94
2022/02/11 11:51:04;;;;;;;5.18;1.30;;;7.50;73.60;;;;;;2113192;27;20112;-94
2022/02/11 11:52:43;;;;;;;5.32;1.50;;;7.60;73.90;;;;;;2103347;28;20043;-93
2022/02/11 11:55:38;;;;;;;8.27;1.35;;;7.80;73.40;;;;;;2116310;28;20028;-94
2022/02/11 11:56:59;;;;;;;9.60;1.27;;;7.90;73.60;;;;;;2099331;28;20036;-94
2022/02/11 11:58:46;;;;;;;5.38;1.00;;;7.90;71.60;;;;;;2106593;28;20048;-94
2022/02/11 12:00:07;;;;;;;4.82;1.10;;;8.00;72.50;;;;;;2115302;28;20036;-94
2022/02/11 12:01:27;;;;;;;5.22;0.90;;;8.10;73.60;;;;;;2105863;28;20032;-95
2022/02/11 12:02:50;;;;;;;6.85;1.10;;;8.20;73.80;;;;;;2102585;28;20099;-95
2022/02/11 12:04:21;;;;;;;4.40;0.90;;;8.30;73.40;;;;;;2114851;28;20035;-95
2022/02/11 12:05:53;;;;;;;5.63;0.90;;;8.40;73.80;;;;;;2119145;28;20035;-95
2022/02/11 12:07:14;;;;;;;4.90;0.95;;;8.50;74.10;;;;;;2115098;28;20040;-93
2022/02/11 12:08:37;;;;;;;4.82;1.23;;;8.70;74.40;;;;;;2115311;28;20055;-92
2022/02/11 12:10:00;;;;;;;4.20;0.90;;;8.70;74.10;;;;;;2105939;28;20486;-94
2022/02/11 12:11:22;;;;;;;5.45;0.85;;;8.80;73.20;;;;;;2112534;28;20110;-93
2022/02/11 12:12:41;;;;;;;6.00;0.88;;;8.80;72.80;;;;;;2111444;28;20044;-92
2022/02/11 12:14:01;;;;;;;5.15;0.90;;;8.70;72.00;;;;;;2117400;28;20091;-94
2022/02/11 12:15:21;;;;;;;4.63;0.85;;;8.70;72.20;;;;;;2113403;28;20036;-91
2022/02/11 12:16:40;;;;;;;4.22;1.23;;;8.70;72.90;;;;;;2117209;28;20043;-92
2022/02/11 12:18:00;;;;;;;5.93;1.40;;;8.60;72.70;;;;;;2113379;28;20047;-92
2022/02/11 12:19:19;;;;;;;7.13;1.20;;;8.60;70.40;;;;;;2112713;28;20040;-92
2022/02/11 12:20:38;;;;;;;6.53;1.00;;;8.60;72.00;;;;;;2107308;28;20036;-93
2022/02/11 12:21:58;;;;;;;7.03;1.20;;;8.60;72.70;;;;;;2105695;28;20040;-92
2022/02/11 12:28:15;;;;;;;5.28;1.00;;;8.50;70.50;;;;;;2115327;28;20079;-93
2022/02/11 12:29:35;;;;;;;7.55;1.00;;;8.50;69.60;;;;;;2099609;28;20044;-90
2022/02/11 12:30:54;;;;;;;7.70;0.88;;;8.40;69.00;;;;;;2109751;27;20122;-92
2022/02/11 12:32:16;;;;;;;8.43;1.50;;;8.30;69.60;;;;;;2095088;28;20036;-92
2022/02/11 12:33:37;;;;;;;5.93;1.10;;;8.20;69.60;;;;;;2106740;28;20138;-92
2022/02/11 12:35:00;;;;;;;4.82;1.00;;;8.20;69.80;;;;;;2104138;28;20036;-92
2022/02/11 12:36:21;;;;;;;4.47;0.75;;;8.10;69.60;;;;;;2111470;28;20031;-91
2022/02/11 12:37:42;;;;;;;4.22;0.90;;;8.00;70.10;;;;;;2102655;28;20060;-92
2022/02/11 12:39:01;;;;;;;5.70;1.00;;;8.00;70.60;;;;;;2104767;28;20044;-91
2022/02/11 12:40:25;;;;;;;5.90;1.08;;;8.00;70.50;;;;;;2101021;28;20265;-91
2022/02/11 12:41:48;;;;;;;5.80;0.90;;;8.00;70.60;;;;;;2109291;28;20040;-92
2022/02/11 12:43:10;;;;;;;5.40;1.05;;;7.90;70.40;;;;;;2099385;28;20045;-91
2022/02/11 12:44:33;;;;;;;5.45;0.98;;;7.90;70.20;;;;;;2102381;28;20012;-93
2022/02/11 12:45:53;;;;;;;3.95;1.00;;;7.90;68.40;;;;;;2113480;28;20043;-94
2022/02/11 12:47:15;;;;;;;4.07;0.83;;;7.90;69.80;;;;;;2109051;28;20028;-92
2022/02/11 12:48:38;;;;;;;4.38;1.00;;;7.90;69.40;;;;;;2110686;28;20321;-91
2022/02/11 12:49:59;;;;;;;6.00;0.88;;;7.80;68.10;;;;;;2095392;28;20028;-93
2022/02/11 12:51:22;;;;;;;3.15;0.68;;;7.80;68.20;;;;;;2104870;28;20048;-95
2022/02/11 12:52:42;;;;;;;2.42;0.70;;;7.70;66.90;;;;;;2114294;28;20036;-92
2022/02/11 12:54:03;;;;;;;3.00;0.95;;;7.70;67.70;;;;;;2115011;28;20059;-91
2022/02/11 12:55:22;;;;;;;3.67;0.80;;;7.60;68.20;;;;;;2108962;28;20040;-91
2022/02/11 12:56:42;;;;;;;3.50;0.80;;;7.60;68.60;;;;;;2105623;28;20044;-93
2022/02/11 12:58:01;;;;;;;3.33;1.00;;;7.60;67.60;;;;;;2098279;28;20040;-93
2022/02/11 12:59:21;;;;;;;4.43;0.90;;;7.50;66.70;;;;;;2108206;28;20051;-94
2022/02/11 13:00:42;;;;;;;3.53;0.68;;;7.50;66.10;;;;;;2098824;28;22402;-93
2022/02/11 13:02:01;;;;;;;4.90;0.98;;;7.40;67.40;;;;;;2100440;28;20052;-93
2022/02/11 13:03:22;;;;;;;4.70;0.85;;;7.30;67.90;;;;;;2102904;27;20037;-93
2022/02/11 13:04:41;;;;;;;;;;;7.30;67.90;;;;;;2112704;28;20048;-92
2022/02/11 13:06:04;;;;;;;4.95;0.88;;;7.20;66.60;;;;;;2107007;28;19915;-94
2022/02/11 13:07:23;;;;;;;3.65;0.80;;;7.20;67.30;;;;;;2103096;28;20033;-93
2022/02/11 13:08:42;;;;;;;3.22;0.63;;;7.10;67.10;;;;;;2092820;28;20044;-94
2022/02/11 13:10:03;;;;;;;2.75;0.65;;;7.00;68.10;;;;;;2106346;27;20035;-93
2022/02/11 13:11:24;;;;;;;;;;;7.00;68.70;;;;;;2116366;28;20035;-92
2022/02/11 13:12:44;;;;;;;2.47;0.70;;;6.90;68.10;;;;;;2113076;28;19908;-93
2022/02/11 13:14:05;;;;;;;;;;;6.90;69.10;;;;;;2118936;28;20067;-90
2022/02/11 13:15:31;;;;;;;3.75;0.50;;;6.90;68.90;;;;;;2119351;27;19908;-91
2022/02/11 13:16:50;;;;;;;5.38;0.88;;;6.90;68.90;;;;;;2112213;28;20044;-92
2022/02/11 13:18:13;;;;;;;5.88;0.70;;;6.80;68.60;;;;;;2106552;28;20036;-92
2022/02/11 13:19:33;;;;;;;2.85;0.50;;;6.90;69.00;;;;;;2116492;27;20043;-92
2022/02/11 13:20:55;;;;;;;3.45;0.70;;;6.90;69.00;;;;;;2105209;28;20040;-92
2022/02/11 13:22:16;;;;;;;3.22;0.70;;;6.90;69.40;;;;;;2113155;27;20052;-92
2022/02/11 13:23:36;;;;;;;3.05;0.50;;;6.90;68.40;;;;;;2102212;28;20065;-93
2022/02/11 13:24:56;;;;;;;5.18;0.70;;;7.00;68.80;;;;;;2117143;27;20035;-91
2022/02/11 13:26:16;;;;;;;3.50;0.60;;;7.00;68.60;;;;;;2098621;28;20482;-91
2022/02/11 13:27:48;;;;;;;2.65;0.70;;;7.10;68.90;;;;;;2100356;28;20044;-92
2022/02/11 13:29:12;;;;;;;2.83;0.60;;;7.10;68.50;;;;;;2111083;27;20616;-92
2022/02/11 13:30:33;;;;;;;2.25;0.50;;;7.10;68.90;;;;;;2112358;27;20067;-91
2022/02/11 13:31:54;;;;;;;3.70;0.50;;;7.20;68.90;;;;;;2100896;28;20044;-91
2022/02/11 13:33:18;;;;;;;4.35;0.70;;;7.20;68.90;;;;;;2104882;28;20032;-93
2022/02/11 13:35:01;;;;;;;4.00;0.65;;;7.30;68.60;;;;;;2106135;28;20039;-92
2022/02/11 13:36:25;;;;;;;1.85;0.50;;;7.30;68.00;;;;;;2121854;27;20039;-94
2022/02/11 13:37:47;;;;;;;2.53;0.75;;;7.30;68.40;;;;;;2110973;28;20134;-92
2022/02/11 13:39:06;;;;;;;4.13;0.88;;;7.30;68.70;;;;;;2110808;27;20035;-93
2022/02/11 13:40:28;;;;;;;4.45;0.73;;;7.30;68.80;;;;;;2112546;27;20078;-91
2022/02/11 13:41:48;;;;;;;3.58;0.75;;;7.30;68.40;;;;;;2115848;27;20036;-92
2022/02/11 13:43:08;;;;;;;4.30;0.60;;;7.30;67.20;;;;;;2104311;28;20036;-92
2022/02/11 13:44:29;;;;;;;3.63;0.70;;;7.30;67.40;;;;;;2102367;28;20028;-91
2022/02/11 13:45:49;;;;;;;;;;;7.30;67.70;;;;;;2109787;28;20055;-92
2022/02/11 13:47:18;;;;;;;5.15;0.82;;;7.40;67.50;;;;;;2109335;27;19912;-92
2022/02/11 13:49:02;;;;;;;4.05;0.70;;;7.40;67.70;;;;;;2115397;28;20046;-91
2022/02/11 13:50:21;;;;;;;3.20;0.60;;;7.40;68.20;;;;;;2113776;27;20106;-91
2022/02/11 13:51:42;;;;;;;3.03;0.60;;;7.50;68.40;;;;;;2108233;28;20074;-90
2022/02/11 13:53:06;;;;;;;2.53;0.60;;;7.50;68.60;;;;;;2095789;28;20032;-93
2022/02/11 13:54:25;;;;;;;2.83;0.70;;;7.60;68.60;;;;;;2102381;28;20044;-92
2022/02/11 13:55:52;;;;;;;5.25;0.82;;;7.60;67.60;;;;;;2103087;28;20074;-93
2022/02/11 13:57:22;;;;;;;3.30;0.90;;;7.60;67.10;;;;;;2111869;28;20044;-92
2022/02/11 13:59:02;;;;;;;4.45;0.63;;;7.50;67.50;;;;;;2107503;28;20028;-94
2022/02/11 14:00:37;;;;;;;4.03;0.82;;;7.50;67.70;;;;;;2120883;27;20385;-92
2022/02/11 14:02:09;;;;;;;2.75;0.60;;;7.50;67.40;;;;;;2104342;28;20040;-93
2022/02/11 14:03:31;;;;;;;5.05;0.90;;;7.50;67.90;;;;;;2114116;27;20039;-92
2022/02/11 14:05:03;;;;;;;3.40;0.70;;;7.40;67.80;;;;;;2104977;28;20486;-93
2022/02/11 14:06:23;;;;;;;2.35;0.60;;;7.40;68.00;;;;;;2109010;28;20048;-93
2022/02/11 14:07:53;;;;;;;3.35;0.77;;;7.50;68.00;;;;;;2091201;28;20108;-92
2022/02/11 14:09:29;;;;;;;3.33;0.77;;;7.40;67.60;;;;;;2109163;28;20099;-92
2022/02/11 14:11:06;;;;;;;4.07;0.90;;;7.40;68.20;;;;;;2111499;27;20489;-92
2022/02/11 14:12:26;;;;;;;4.32;0.75;;;7.40;68.10;;;;;;2119330;27;20028;-91
2022/02/11 14:13:47;;;;;;;3.83;0.80;;;7.30;68.20;;;;;;2107400;28;20094;-90
2022/02/11 14:15:07;;;;;;;5.28;0.50;;;7.30;68.50;;;;;;2101474;28;20028;-91
2022/02/11 14:16:27;;;;;;;3.35;0.68;;;7.30;68.60;;;;;;2104229;28;20044;-90
2022/02/11 14:17:46;;;;;;;2.85;0.70;;;7.30;68.40;;;;;;2105254;28;20044;-90
2022/02/11 14:19:05;;;;;;;3.28;0.70;;;7.20;67.40;;;;;;2102881;28;20044;-92
2022/02/11 14:20:25;;;;;;;4.25;0.88;;;7.20;68.60;;;;;;2099688;28;20044;-91
2022/02/11 14:21:44;;;;;;;3.17;0.60;;;7.20;68.20;;;;;;2100308;28;20040;-91
2022/02/11 14:23:11;;;;;;;4.40;0.70;;;7.20;68.40;;;;;;2101568;28;20052;-91
2022/02/11 14:24:30;;;;;;;4.18;0.70;;;7.20;68.30;;;;;;2103844;28;20043;-91
2022/02/11 14:25:49;;;;;;;3.92;0.82;;;7.20;68.30;;;;;;2106808;28;20051;-91
2022/02/11 14:27:10;;;;;;;1.92;0.52;;;7.20;68.70;;;;;;2100391;28;20032;-91
2022/02/11 14:28:30;;;;;;;2.22;0.63;;;7.20;68.70;;;;;;2100618;28;20489;-90
2022/02/11 14:29:49;;;;;;;2.67;0.52;;;7.20;68.80;;;;;;2093772;28;20033;-91
2022/02/11 14:31:08;;;;;;;2.67;0.70;;;7.20;69.00;;;;;;2103477;27;20044;-90
2022/02/11 14:32:28;;;;;;;4.20;0.60;;;7.20;69.20;;;;;;2102834;28;20044;-90
2022/02/11 14:33:47;;;;;;;2.72;0.55;;;7.20;69.30;;;;;;2102545;28;20044;-91
2022/02/11 14:35:07;;;;;;;3.97;0.57;;;7.30;69.50;;;;;;2103457;27;20509;-90
2022/02/11 14:36:26;;;;;;;2.90;0.57;;;7.30;69.30;;;;;;2102181;28;20040;-94
2022/02/11 14:37:45;;;;;;;3.45;0.80;;;7.30;69.50;;;;;;2109524;27;20056;-95
2022/02/11 14:39:06;;;;;;;2.70;0.68;;;7.30;69.60;;;;;;2104485;28;20048;-94
2022/02/11 14:40:25;;;;;;;;;;;7.30;69.70;;;;;;2116171;27;20036;-95
2022/02/11 14:41:51;;;;;;;2.17;0.32;;;7.30;70.00;;;;;;2108857;28;19916;-92
2022/02/11 14:43:10;;;;;;;2.47;0.55;;;7.30;70.70;;;;;;2113647;28;20485;-92
2022/02/11 14:44:36;;;;;;;2.45;0.47;;;7.30;70.10;;;;;;2105028;28;20103;-92
2022/02/11 14:45:56;;;;;;;2.75;0.70;;;7.30;70.10;;;;;;2111428;28;20134;-92
2022/02/11 14:47:15;;;;;;;2.92;0.52;;;7.30;69.90;;;;;;2101548;28;20095;-91
2022/02/11 14:48:34;;;;;;;2.63;0.57;;;7.30;70.10;;;;;;2105352;28;20036;-92